Great Linford, United Kingdom
Current Conditions -  °F | °C
As of 1:20 PM on Saturday 20 Dec 2014 (Local Time) from EGTC Reporting Station
Scattered Clouds Scattered Clouds  
Wind Chill: 42°   Ceiling: Unl
Heat Index: 48°   Visibility: 6mi
Dew Point: 39°   Wind: 17mph
Humidity: 71%   Direction: 270°W
Pressure: 30.24"   Gusts: NA
Location:  52.08°N, 0.75°W
Report Text: EGTC 201320Z 27015KT 9999 SCT030 09/04 Q1024
Loading
Personal Weather Stations






























Interactive Weather Map New forecast layout! Learn more

10-Day Weather Forecast

Advertisements
Track Severe Weather on mobile